Time;durP1;ratioP1;P1;durP2;ratioP2;P2;SDS_P1;SDS_P2;PMS_P1;PMS_P2;Temp;Humidity;BMP_temperature;BMP_pressure;BME280_temperature;BME280_humidity;BME280_pressure;Samples;Min_cycle;Max_cycle;Signal;HPM_P1;HPM_P2
2021/04/03 00:01:31;;;;;;;24.80;5.93;;;;;;;;;;5037232;28;20455;-70
2021/04/03 00:04:02;;;;;;;29.47;3.93;;;;;;;;;;5035503;28;20555;-72
2021/04/03 00:06:29;;;;;;;16.10;3.23;;;;;;;;;;5018621;28;20761;-70
2021/04/03 00:08:58;;;;;;;11.73;3.07;;;;;;;;;;5017498;28;20550;-70
2021/04/03 00:11:25;;;;;;;12.77;2.97;;;;;;;;;;5017547;28;20458;-70
2021/04/03 00:13:57;;;;;;;14.03;2.97;;;;;;;;;;5021614;28;20530;-71
2021/04/03 00:16:24;;;;;;;16.20;3.30;;;;;;;;;;5037230;28;20454;-71
2021/04/03 00:18:51;;;;;;;11.27;2.27;;;;;;;;;;5037058;28;20463;-70
2021/04/03 00:21:18;;;;;;;7.20;2.17;;;;;;;;;;5037096;28;20547;-71
2021/04/03 00:23:46;;;;;;;9.67;2.70;;;;;;;;;;5036417;28;20540;-70
2021/04/03 00:26:14;;;;;;;13.07;2.67;;;;;;;;;;5038061;28;20458;-70
2021/04/03 00:28:41;;;;;;;18.27;3.30;;;;;;;;;;5037346;28;20477;-70
2021/04/03 00:31:09;;;;;;;8.10;1.90;;;;;;;;;;5037695;28;20477;-70
2021/04/03 00:33:36;;;;;;;17.07;3.87;;;;;;;;;;5037579;28;20462;-71
2021/04/03 00:36:03;;;;;;;11.40;3.37;;;;;;;;;;5036940;28;20861;-71
2021/04/03 00:38:30;;;;;;;10.43;2.80;;;;;;;;;;5037345;28;20458;-71
2021/04/03 00:40:57;;;;;;;11.87;4.37;;;;;;;;;;5037107;28;20462;-71
2021/04/03 00:43:29;;;;;;;9.80;2.60;;;;;;;;;;5036796;28;20506;-70
2021/04/03 00:45:56;;;;;;;14.83;4.17;;;;;;;;;;5036794;28;20572;-71
2021/04/03 00:48:23;;;;;;;11.40;3.27;;;;;;;;;;5036981;28;20490;-70
2021/04/03 00:50:53;;;;;;;10.43;2.97;;;;;;;;;;5036813;28;20483;-72
2021/04/03 00:53:22;;;;;;;7.23;3.10;;;;;;;;;;5036325;28;20751;-71
2021/04/03 00:55:50;;;;;;;20.57;4.47;;;;;;;;;;5036872;28;20481;-71
2021/04/03 00:58:19;;;;;;;12.87;3.47;;;;;;;;;;5038036;28;20462;-72
2021/04/03 01:00:48;;;;;;;9.53;2.90;;;;;;;;;;5037852;28;20536;-72
2021/04/03 01:03:15;;;;;;;10.70;2.57;;;;;;;;;;5036193;28;20486;-71
2021/04/03 01:05:43;;;;;;;13.00;3.20;;;;;;;;;;5037496;28;20726;-71
2021/04/03 01:08:11;;;;;;;14.83;3.00;;;;;;;;;;5036846;28;20550;-71
2021/04/03 01:10:40;;;;;;;12.13;3.00;;;;;;;;;;5037685;28;20847;-71
2021/04/03 01:13:15;;;;;;;11.60;3.40;;;;;;;;;;5036187;28;20442;-71
2021/04/03 01:15:47;;;;;;;9.97;3.20;;;;;;;;;;5056634;28;20457;-71
2021/04/03 01:18:20;;;;;;;11.70;2.30;;;;;;;;;;5056645;28;20457;-71
2021/04/03 01:20:53;;;;;;;20.50;5.00;;;;;;;;;;5056388;28;20464;-71
2021/04/03 01:23:38;;;;;;;17.97;3.63;;;;;;;;;;5055917;28;20477;-71
2021/04/03 01:26:25;;;;;;;7.17;2.83;;;;;;;;;;5059970;28;20457;-71
2021/04/03 01:28:58;;;;;;;14.77;5.17;;;;;;;;;;5060327;28;20488;-71
2021/04/03 01:31:26;;;;;;;14.57;3.10;;;;;;;;;;5060421;28;20457;-70
2021/04/03 01:33:55;;;;;;;8.70;2.50;;;;;;;;;;5060193;28;20959;-70
2021/04/03 01:36:29;;;;;;;10.33;3.43;;;;;;;;;;5060360;28;20461;-71
2021/04/03 01:39:00;;;;;;;14.30;2.70;;;;;;;;;;5060143;28;20516;-70
2021/04/03 01:41:28;;;;;;;14.43;3.90;;;;;;;;;;5060559;28;20556;-71
2021/04/03 01:43:59;;;;;;;8.50;2.73;;;;;;;;;;5061236;28;20516;-70
2021/04/03 01:46:30;;;;;;;16.93;3.90;;;;;;;;;;5060205;28;20751;-70
2021/04/03 01:48:59;;;;;;;11.60;3.23;;;;;;;;;;5061297;28;20457;-70
2021/04/03 01:51:30;;;;;;;18.17;6.50;;;;;;;;;;5059490;28;20714;-71
2021/04/03 01:53:57;;;;;;;11.00;1.87;;;;;;;;;;5060663;28;20457;-71
2021/04/03 01:56:26;;;;;;;13.37;2.70;;;;;;;;;;5044029;28;20497;-71
2021/04/03 01:58:54;;;;;;;17.67;4.03;;;;;;;;;;5047998;28;20474;-70
2021/04/03 02:01:21;;;;;;;9.83;2.83;;;;;;;;;;5039229;28;20465;-70
2021/04/03 02:03:51;;;;;;;17.20;3.63;;;;;;;;;;5038925;28;20839;-70
2021/04/03 02:06:19;;;;;;;20.23;4.90;;;;;;;;;;5039451;28;20462;-71
2021/04/03 02:08:48;;;;;;;17.73;4.10;;;;;;;;;;5039089;28;20931;-72
2021/04/03 02:11:15;;;;;;;17.00;3.77;;;;;;;;;;5039967;28;20863;-71
2021/04/03 02:13:43;;;;;;;7.50;3.10;;;;;;;;;;5046653;28;20450;-70
2021/04/03 02:16:10;;;;;;;11.00;3.80;;;;;;;;;;5059410;28;20556;-71
2021/04/03 02:18:40;;;;;;;12.30;3.30;;;;;;;;;;5058877;28;20464;-71
2021/04/03 02:21:10;;;;;;;22.67;3.90;;;;;;;;;;5059149;28;20461;-70
2021/04/03 02:23:37;;;;;;;9.40;3.10;;;;;;;;;;5059578;28;20485;-70
2021/04/03 02:26:05;;;;;;;13.37;3.10;;;;;;;;;;5059311;28;20548;-70
2021/04/03 02:28:33;;;;;;;12.93;3.63;;;;;;;;;;5059632;28;20821;-70
2021/04/03 02:31:01;;;;;;;17.40;3.43;;;;;;;;;;5060088;28;20519;-70
2021/04/03 02:33:28;;;;;;;13.17;3.93;;;;;;;;;;5059318;28;20457;-70
2021/04/03 02:35:55;;;;;;;23.20;3.40;;;;;;;;;;5059718;28;20472;-70
2021/04/03 02:38:23;;;;;;;7.07;2.63;;;;;;;;;;5059390;28;20617;-70
2021/04/03 02:40:54;;;;;;;22.13;3.70;;;;;;;;;;5026907;28;20488;-70
2021/04/03 02:43:25;;;;;;;22.30;4.30;;;;;;;;;;5058087;28;20654;-70
2021/04/03 02:45:58;;;;;;;16.40;3.47;;;;;;;;;;5048442;28;20451;-70
2021/04/03 02:48:27;;;;;;;13.37;3.47;;;;;;;;;;5038967;28;20502;-71
2021/04/03 02:50:56;;;;;;;10.87;3.40;;;;;;;;;;5038793;28;20447;-70
2021/04/03 02:53:27;;;;;;;12.80;3.00;;;;;;;;;;5039001;28;20490;-71
2021/04/03 02:55:55;;;;;;;12.77;3.37;;;;;;;;;;5039361;28;20461;-70
2021/04/03 02:58:25;;;;;;;12.93;4.50;;;;;;;;;;5038796;28;20881;-71
2021/04/03 03:00:53;;;;;;;13.80;3.13;;;;;;;;;;5041211;28;20466;-71
2021/04/03 03:03:22;;;;;;;16.50;5.03;;;;;;;;;;5038776;28;20580;-71
2021/04/03 03:05:50;;;;;;;14.30;3.93;;;;;;;;;;5039604;28;20565;-71
2021/04/03 03:08:18;;;;;;;13.10;3.23;;;;;;;;;;5039637;28;20458;-71
2021/04/03 03:10:53;;;;;;;14.60;3.40;;;;;;;;;;5038170;28;20529;-71
2021/04/03 03:13:21;;;;;;;8.63;3.53;;;;;;;;;;5039131;28;20870;-71
2021/04/03 03:15:48;;;;;;;14.73;3.30;;;;;;;;;;5038290;28;20880;-71
2021/04/03 03:18:16;;;;;;;14.87;4.63;;;;;;;;;;5038473;28;20451;-71
2021/04/03 03:20:43;;;;;;;12.13;3.10;;;;;;;;;;5037776;28;20561;-71
2021/04/03 03:23:15;;;;;;;13.87;3.20;;;;;;;;;;5038543;28;20511;-71
2021/04/03 03:25:42;;;;;;;14.37;4.13;;;;;;;;;;5038512;28;20466;-71
2021/04/03 03:28:12;;;;;;;10.30;4.20;;;;;;;;;;5038182;28;20485;-71
2021/04/03 03:30:40;;;;;;;15.20;3.47;;;;;;;;;;5038209;28;20466;-71
2021/04/03 03:33:08;;;;;;;14.13;4.57;;;;;;;;;;5039430;28;20454;-71
2021/04/03 03:35:36;;;;;;;15.20;4.00;;;;;;;;;;5039125;28;20462;-71
2021/04/03 03:38:04;;;;;;;17.47;5.27;;;;;;;;;;5038394;28;20485;-72
2021/04/03 03:40:36;;;;;;;11.87;3.90;;;;;;;;;;5038044;28;20497;-71
2021/04/03 03:43:03;;;;;;;24.53;5.20;;;;;;;;;;5037410;28;20482;-71
2021/04/03 03:45:31;;;;;;;8.40;3.37;;;;;;;;;;5037433;28;20454;-70
2021/04/03 03:48:02;;;;;;;11.97;3.97;;;;;;;;;;5035641;28;20557;-71
2021/04/03 03:50:30;;;;;;;10.63;3.13;;;;;;;;;;5028415;28;20534;-71
2021/04/03 03:53:00;;;;;;;14.17;4.00;;;;;;;;;;5037762;28;20860;-71
2021/04/03 03:55:27;;;;;;;11.10;3.33;;;;;;;;;;5037382;28;20567;-71
2021/04/03 03:57:55;;;;;;;21.33;4.90;;;;;;;;;;5037336;28;20458;-71
2021/04/03 04:00:25;;;;;;;14.53;3.67;;;;;;;;;;5036602;28;20523;-72
2021/04/03 04:02:56;;;;;;;15.33;3.90;;;;;;;;;;5037551;28;20618;-70
2021/04/03 04:05:27;;;;;;;14.87;4.07;;;;;;;;;;5037566;28;20577;-71
2021/04/03 04:07:54;;;;;;;11.43;3.53;;;;;;;;;;5048413;28;20449;-71
2021/04/03 04:10:24;;;;;;;15.00;4.47;;;;;;;;;;5057067;28;20770;-72
2021/04/03 04:12:51;;;;;;;14.53;4.70;;;;;;;;;;5057311;28;20707;-72
2021/04/03 04:15:19;;;;;;;13.33;4.00;;;;;;;;;;5057632;28;20888;-71
2021/04/03 04:17:49;;;;;;;13.70;4.47;;;;;;;;;;5057363;28;21009;-71
2021/04/03 04:20:18;;;;;;;9.67;3.07;;;;;;;;;;5057178;28;20480;-71
2021/04/03 04:22:45;;;;;;;10.33;4.63;;;;;;;;;;5057801;28;20524;-71
2021/04/03 04:25:15;;;;;;;12.73;4.20;;;;;;;;;;5057265;28;20803;-71
2021/04/03 04:27:43;;;;;;;18.07;4.10;;;;;;;;;;5043498;28;20533;-71
2021/04/03 04:30:11;;;;;;;16.37;4.10;;;;;;;;;;5037974;28;20494;-71
2021/04/03 04:32:39;;;;;;;10.30;2.63;;;;;;;;;;5032399;28;20462;-71
2021/04/03 04:35:08;;;;;;;13.43;3.40;;;;;;;;;;5057509;28;20480;-71
2021/04/03 04:37:36;;;;;;;10.83;3.83;;;;;;;;;;5051484;28;20553;-71
2021/04/03 04:40:04;;;;;;;17.20;4.17;;;;;;;;;;5036128;28;20470;-71
2021/04/03 04:42:34;;;;;;;16.20;5.10;;;;;;;;;;5037845;28;20465;-71
2021/04/03 04:45:05;;;;;;;17.13;3.90;;;;;;;;;;5024413;28;20549;-71
2021/04/03 04:47:35;;;;;;;11.53;3.50;;;;;;;;;;5049912;28;20461;-71
2021/04/03 04:50:02;;;;;;;10.37;3.43;;;;;;;;;;5053004;28;20462;-71
2021/04/03 04:52:30;;;;;;;13.97;3.60;;;;;;;;;;5037270;28;20954;-71
2021/04/03 04:55:02;;;;;;;11.97;3.57;;;;;;;;;;5036547;28;20548;-71
2021/04/03 04:57:30;;;;;;;14.70;5.00;;;;;;;;;;5034806;28;20759;-71
2021/04/03 04:59:57;;;;;;;11.87;3.80;;;;;;;;;;5025563;28;20488;-71
2021/04/03 05:02:24;;;;;;;19.00;4.80;;;;;;;;;;5019773;28;20475;-71
2021/04/03 05:04:52;;;;;;;8.80;4.27;;;;;;;;;;5017681;28;20497;-71
2021/04/03 05:07:20;;;;;;;12.67;4.27;;;;;;;;;;5017827;28;20730;-70
2021/04/03 05:09:47;;;;;;;20.50;5.13;;;;;;;;;;5016624;28;20820;-70
2021/04/03 05:12:15;;;;;;;12.63;5.90;;;;;;;;;;5017110;28;20539;-71
2021/04/03 05:14:42;;;;;;;9.90;3.43;;;;;;;;;;5016115;28;20852;-70
2021/04/03 05:17:09;;;;;;;9.00;3.83;;;;;;;;;;5012376;28;20482;-70
2021/04/03 05:19:37;;;;;;;10.30;3.30;;;;;;;;;;5015907;28;20463;-71
2021/04/03 05:22:05;;;;;;;11.37;4.20;;;;;;;;;;5044339;28;20452;-70
2021/04/03 05:24:32;;;;;;;13.53;3.27;;;;;;;;;;5055941;28;20497;-70
2021/04/03 05:26:59;;;;;;;6.90;3.47;;;;;;;;;;5055576;28;20463;-70
2021/04/03 05:29:27;;;;;;;14.27;4.03;;;;;;;;;;5054781;28;20464;-70
2021/04/03 05:31:55;;;;;;;9.90;3.07;;;;;;;;;;5054964;28;20457;-70
2021/04/03 05:34:22;;;;;;;10.67;3.30;;;;;;;;;;5055686;28;20859;-70
2021/04/03 05:36:49;;;;;;;9.77;3.77;;;;;;;;;;5056045;28;20441;-70
2021/04/03 05:39:17;;;;;;;14.90;4.27;;;;;;;;;;5056325;28;20458;-71
2021/04/03 05:41:44;;;;;;;13.33;3.80;;;;;;;;;;5055777;28;20887;-70
2021/04/03 05:44:12;;;;;;;12.50;2.50;;;;;;;;;;5054906;28;20584;-72
2021/04/03 05:46:43;;;;;;;13.37;3.97;;;;;;;;;;5055393;28;20522;-71
2021/04/03 05:49:11;;;;;;;12.30;4.77;;;;;;;;;;5055581;28;20453;-71
2021/04/03 05:51:39;;;;;;;7.47;3.40;;;;;;;;;;5055668;28;20540;-70
2021/04/03 05:54:09;;;;;;;10.60;3.20;;;;;;;;;;5055746;28;20454;-71
2021/04/03 05:56:37;;;;;;;11.33;3.33;;;;;;;;;;5055396;28;20866;-71
2021/04/03 05:59:04;;;;;;;12.43;4.00;;;;;;;;;;5055882;28;20462;-71
2021/04/03 06:01:33;;;;;;;7.10;3.60;;;;;;;;;;5055185;28;20497;-70
2021/04/03 06:04:02;;;;;;;11.33;3.63;;;;;;;;;;5055705;28;20489;-71
2021/04/03 06:06:30;;;;;;;9.60;2.50;;;;;;;;;;5047463;28;20560;-71
2021/04/03 06:08:57;;;;;;;5.63;1.90;;;;;;;;;;5035432;28;20873;-71
2021/04/03 06:11:25;;;;;;;9.67;3.10;;;;;;;;;;5038688;28;20494;-72
2021/04/03 06:14:13;;;;;;;9.53;3.77;;;;;;;;;;5039401;28;20518;-71
2021/04/03 06:16:41;;;;;;;11.53;2.90;;;;;;;;;;5035859;28;20486;-71
2021/04/03 06:19:10;;;;;;;15.83;3.30;;;;;;;;;;5039016;28;20541;-71
2021/04/03 06:21:38;;;;;;;5.57;2.37;;;;;;;;;;5038926;28;20751;-71
2021/04/03 06:24:20;;;;;;;13.23;2.97;;;;;;;;;;5038403;28;20552;-69
2021/04/03 06:27:01;;;;;;;6.13;3.20;;;;;;;;;;5036820;28;20490;-70
2021/04/03 06:29:31;;;;;;;9.60;3.43;;;;;;;;;;5037853;28;20523;-73
2021/04/03 06:32:01;;;;;;;6.17;2.50;;;;;;;;;;5038105;28;20735;-71
2021/04/03 06:34:34;;;;;;;7.63;3.50;;;;;;;;;;5038399;28;20474;-70
2021/04/03 06:37:01;;;;;;;14.57;3.07;;;;;;;;;;5039119;28;20481;-71
2021/04/03 06:39:29;;;;;;;10.87;3.30;;;;;;;;;;5038238;28;20451;-71
2021/04/03 06:42:00;;;;;;;9.93;3.70;;;;;;;;;;5038169;28;20479;-70
2021/04/03 06:44:28;;;;;;;7.20;3.73;;;;;;;;;;5038276;28;20516;-70
2021/04/03 06:46:58;;;;;;;9.80;3.20;;;;;;;;;;5037992;28;20550;-70
2021/04/03 06:49:27;;;;;;;9.37;3.07;;;;;;;;;;5029663;28;20532;-70
2021/04/03 06:51:55;;;;;;;10.30;2.87;;;;;;;;;;5021138;28;20754;-70
2021/04/03 06:54:22;;;;;;;5.53;2.80;;;;;;;;;;5038425;28;20457;-70
2021/04/03 06:56:49;;;;;;;9.17;3.83;;;;;;;;;;5023519;28;20463;-70
2021/04/03 06:59:20;;;;;;;12.23;3.40;;;;;;;;;;5034225;28;20807;-70
2021/04/03 07:01:50;;;;;;;22.93;4.40;;;;;;;;;;5018410;28;20882;-70
2021/04/03 07:04:24;;;;;;;14.00;3.03;;;;;;;;;;5018497;28;20553;-70
2021/04/03 07:06:52;;;;;;;5.97;2.60;;;;;;;;;;5019380;28;20487;-70
2021/04/03 07:09:21;;;;;;;12.90;3.33;;;;;;;;;;5018283;28;20582;-70
2021/04/03 07:11:49;;;;;;;6.03;2.20;;;;;;;;;;5017892;28;20989;-70
2021/04/03 07:14:19;;;;;;;8.10;2.70;;;;;;;;;;5017798;28;20451;-69
2021/04/03 07:16:47;;;;;;;8.53;2.47;;;;;;;;;;5017295;28;20800;-70
2021/04/03 07:19:17;;;;;;;7.10;2.60;;;;;;;;;;5017760;28;20460;-71
2021/04/03 07:21:45;;;;;;;9.40;2.50;;;;;;;;;;5018391;28;20460;-70
2021/04/03 07:24:13;;;;;;;9.77;3.50;;;;;;;;;;5023985;28;20487;-70
2021/04/03 07:26:44;;;;;;;9.57;2.97;;;;;;;;;;5017680;28;20455;-70
2021/04/03 07:29:31;;;;;;;5.60;2.30;;;;;;;;;;5017809;28;20549;-70
2021/04/03 07:32:04;;;;;;;4.80;2.40;;;;;;;;;;5021779;28;20470;-70
2021/04/03 07:34:40;;;;;;;7.40;2.77;;;;;;;;;;5028735;28;20451;-70
2021/04/03 07:37:10;;;;;;;11.10;2.63;;;;;;;;;;5037813;28;20480;-69
2021/04/03 07:39:38;;;;;;;5.43;2.00;;;;;;;;;;5037084;28;20815;-70
2021/04/03 07:42:07;;;;;;;5.80;2.30;;;;;;;;;;5042747;28;20839;-70
2021/04/03 07:44:36;;;;;;;7.40;3.13;;;;;;;;;;5057499;28;20773;-71
2021/04/03 07:47:28;;;;;;;2.17;1.27;;;;;;;;;;5058249;28;20454;-71
2021/04/03 07:49:57;;;;;;;5.93;2.27;;;;;;;;;;5057122;28;20546;-70
2021/04/03 07:52:54;;;;;;;6.27;1.90;;;;;;;;;;5015972;28;20872;-71
2021/04/03 07:55:31;;;;;;;7.50;2.50;;;;;;;;;;4957338;29;20458;-71
2021/04/03 07:58:17;;;;;;;7.03;2.27;;;;;;;;;;5009870;28;20479;-71
2021/04/03 08:00:50;;;;;;;5.57;1.90;;;;;;;;;;5016916;28;20459;-71
2021/04/03 08:03:25;;;;;;;4.30;2.10;;;;;;;;;;5017292;28;20479;-72
2021/04/03 08:05:58;;;;;;;7.27;1.90;;;;;;;;;;5015888;28;20917;-73
2021/04/03 08:08:29;;;;;;;3.90;1.90;;;;;;;;;;5015897;28;20522;-72
2021/04/03 08:11:16;;;;;;;7.60;2.30;;;;;;;;;;5017129;28;20879;-72
2021/04/03 08:13:45;;;;;;;5.07;2.17;;;;;;;;;;5014789;28;20483;-72
2021/04/03 08:16:14;;;;;;;4.83;2.00;;;;;;;;;;5016552;28;20467;-72
2021/04/03 08:18:42;;;;;;;5.70;2.27;;;;;;;;;;5022647;28;20494;-72
2021/04/03 08:21:11;;;;;;;5.23;2.10;;;;;;;;;;5036843;28;20722;-71
2021/04/03 08:23:39;;;;;;;7.97;1.50;;;;;;;;;;5036811;28;20501;-72
2021/04/03 08:26:10;;;;;;;5.10;1.30;;;;;;;;;;5034479;28;20451;-71
2021/04/03 08:28:40;;;;;;;2.90;1.50;;;;;;;;;;5030487;28;20560;-72
2021/04/03 08:31:16;;;;;;;3.90;1.60;;;;;;;;;;5028782;28;20459;-70
2021/04/03 08:33:47;;;;;;;5.00;1.83;;;;;;;;;;5024855;28;20477;-72
2021/04/03 08:36:18;;;;;;;4.97;2.00;;;;;;;;;;5022692;28;20501;-70
2021/04/03 08:38:45;;;;;;;4.33;1.57;;;;;;;;;;5042802;28;20455;-71
2021/04/03 08:41:18;;;;;;;5.37;1.17;;;;;;;;;;5033128;28;20467;-70
2021/04/03 08:43:49;;;;;;;3.93;1.30;;;;;;;;;;5037955;28;20504;-70
2021/04/03 08:46:26;;;;;;;3.47;1.40;;;;;;;;;;5034586;28;20482;-71
2021/04/03 08:49:09;;;;;;;4.50;1.60;;;;;;;;;;5034827;28;20466;-71
2021/04/03 08:51:42;;;;;;;1.80;0.90;;;;;;;;;;5015731;28;20758;-70
2021/04/03 08:54:15;;;;;;;3.63;1.10;;;;;;;;;;5034705;28;20458;-70
2021/04/03 08:56:44;;;;;;;2.07;0.90;;;;;;;;;;5023004;28;20465;-71
2021/04/03 08:59:15;;;;;;;2.00;1.20;;;;;;;;;;5040929;28;20462;-71
2021/04/03 09:01:45;;;;;;;2.03;0.90;;;;;;;;;;5016928;28;20463;-70
2021/04/03 09:04:18;;;;;;;3.47;1.00;;;;;;;;;;5028991;28;20522;-70
2021/04/03 09:06:55;;;;;;;2.00;0.77;;;;;;;;;;5035785;28;20462;-70
2021/04/03 09:09:29;;;;;;;2.40;1.13;;;;;;;;;;5028218;28;20467;-70
2021/04/03 09:11:58;;;;;;;2.50;1.00;;;;;;;;;;5016168;28;20524;-70
2021/04/03 09:14:30;;;;;;;2.30;0.97;;;;;;;;;;5030054;28;20453;-70
2021/04/03 09:16:59;;;;;;;2.87;0.93;;;;;;;;;;5055395;28;20500;-70
2021/04/03 09:19:30;;;;;;;1.63;0.60;;;;;;;;;;5038698;28;20446;-70
2021/04/03 09:22:01;;;;;;;3.10;0.70;;;;;;;;;;5035646;28;20451;-70
2021/04/03 09:24:42;;;;;;;2.53;0.60;;;;;;;;;;5035711;28;20502;-69
2021/04/03 09:27:17;;;;;;;2.03;0.80;;;;;;;;;;5034902;28;20521;-69
2021/04/03 09:29:46;;;;;;;3.03;1.43;;;;;;;;;;5036274;28;20490;-69
2021/04/03 09:32:16;;;;;;;3.10;0.67;;;;;;;;;;5036156;28;20451;-70
2021/04/03 09:34:44;;;;;;;1.30;0.60;;;;;;;;;;5036848;28;20455;-70
2021/04/03 09:37:15;;;;;;;1.50;0.57;;;;;;;;;;5035864;28;20451;-70
2021/04/03 09:39:52;;;;;;;3.20;0.90;;;;;;;;;;5056716;28;20504;-69
2021/04/03 09:42:23;;;;;;;2.13;0.80;;;;;;;;;;5035250;28;20446;-68
2021/04/03 09:44:51;;;;;;;2.80;0.97;;;;;;;;;;5033800;28;20502;-69
2021/04/03 09:47:33;;;;;;;2.10;0.67;;;;;;;;;;5004823;28;20584;-68
2021/04/03 09:50:04;;;;;;;1.70;0.70;;;;;;;;;;5011626;28;20532;-70
2021/04/03 09:52:32;;;;;;;2.40;1.13;;;;;;;;;;5019284;28;20447;-70
2021/04/03 09:55:01;;;;;;;2.30;0.70;;;;;;;;;;5015604;28;20751;-70
2021/04/03 09:57:34;;;;;;;6.80;1.00;;;;;;;;;;5000919;28;20471;-70
2021/04/03 10:00:04;;;;;;;3.33;0.90;;;;;;;;;;5014632;28;20452;-70
2021/04/03 10:02:35;;;;;;;1.67;0.90;;;;;;;;;;5001539;28;20452;-70
2021/04/03 10:05:09;;;;;;;1.90;0.90;;;;;;;;;;5000302;28;20499;-70
2021/04/03 10:07:36;;;;;;;1.60;0.80;;;;;;;;;;5015494;28;20467;-70
2021/04/03 10:10:11;;;;;;;4.10;0.80;;;;;;;;;;5008674;28;20471;-70
2021/04/03 10:12:39;;;;;;;2.03;0.60;;;;;;;;;;5001110;28;20467;-70
2021/04/03 10:15:08;;;;;;;2.27;0.80;;;;;;;;;;5013622;28;20451;-70
2021/04/03 10:18:02;;;;;;;1.20;0.60;;;;;;;;;;5015235;28;20498;-70
2021/04/03 10:20:35;;;;;;;2.10;0.80;;;;;;;;;;5000545;28;20496;-70
2021/04/03 10:23:02;;;;;;;2.70;0.90;;;;;;;;;;5004769;28;20460;-70
2021/04/03 10:25:30;;;;;;;1.50;0.67;;;;;;;;;;5013619;28;20531;-69
2021/04/03 10:27:58;;;;;;;1.40;0.80;;;;;;;;;;5015628;28;20456;-70
2021/04/03 10:30:25;;;;;;;3.43;1.13;;;;;;;;;;5018040;28;20616;-70
2021/04/03 10:32:58;;;;;;;3.43;0.90;;;;;;;;;;5007897;28;20513;-70
2021/04/03 10:35:30;;;;;;;3.40;0.93;;;;;;;;;;4998490;28;20449;-71
2021/04/03 10:38:01;;;;;;;2.63;0.70;;;;;;;;;;5005313;28;20534;-71
2021/04/03 10:40:30;;;;;;;2.00;0.80;;;;;;;;;;5024184;28;20466;-70
2021/04/03 10:43:05;;;;;;;2.00;0.80;;;;;;;;;;5026148;28;20458;-70
2021/04/03 10:45:57;;;;;;;2.90;1.47;;;;;;;;;;5017091;28;20539;-69
2021/04/03 10:48:27;;;;;;;1.93;0.80;;;;;;;;;;5020151;28;20463;-71
2021/04/03 10:50:55;;;;;;;2.60;0.80;;;;;;;;;;5030194;28;20455;-70
2021/04/03 10:53:24;;;;;;;1.90;0.70;;;;;;;;;;5038829;28;20459;-70
2021/04/03 10:56:04;;;;;;;1.40;0.87;;;;;;;;;;5038126;28;20540;-70
2021/04/03 10:58:47;;;;;;;2.60;0.60;;;;;;;;;;5034916;28;20465;-69
2021/04/03 11:01:20;;;;;;;1.43;0.70;;;;;;;;;;5026774;28;20454;-70
2021/04/03 11:03:58;;;;;;;1.53;0.70;;;;;;;;;;5036223;28;20549;-70
2021/04/03 11:06:44;;;;;;;3.73;1.27;;;;;;;;;;5057436;28;20453;-69
2021/04/03 11:09:26;;;;;;;6.33;1.10;;;;;;;;;;5059421;28;20462;-68
2021/04/03 11:12:08;;;;;;;1.40;0.70;;;;;;;;;;5037702;28;20842;-70
2021/04/03 11:14:39;;;;;;;6.03;1.00;;;;;;;;;;5055009;28;20458;-69
2021/04/03 11:17:17;;;;;;;1.83;0.90;;;;;;;;;;5046151;28;20434;-70
2021/04/03 11:20:00;;;;;;;2.50;1.03;;;;;;;;;;5028040;28;20470;-70
2021/04/03 11:22:37;;;;;;;1.30;0.67;;;;;;;;;;5017237;28;20869;-70
2021/04/03 11:25:08;;;;;;;2.60;0.90;;;;;;;;;;5020525;28;20985;-71
2021/04/03 11:27:36;;;;;;;1.80;0.70;;;;;;;;;;5023577;28;20454;-69
2021/04/03 11:30:14;;;;;;;1.40;0.60;;;;;;;;;;5016568;28;20494;-71
2021/04/03 11:32:44;;;;;;;4.97;0.80;;;;;;;;;;5017306;28;20475;-70
2021/04/03 11:35:16;;;;;;;3.83;0.83;;;;;;;;;;5048042;28;20457;-76
2021/04/03 11:37:45;;;;;;;1.97;1.23;;;;;;;;;;5037638;28;20459;-70
2021/04/03 11:40:13;;;;;;;8.33;1.87;;;;;;;;;;5037189;28;20450;-69
2021/04/03 11:42:45;;;;;;;3.20;1.50;;;;;;;;;;5037521;28;20459;-71
2021/04/03 11:45:14;;;;;;;4.00;1.30;;;;;;;;;;5036589;28;20520;-70
2021/04/03 11:47:41;;;;;;;1.97;0.87;;;;;;;;;;5040909;28;20495;-71
2021/04/03 11:50:10;;;;;;;1.23;0.70;;;;;;;;;;5030935;28;20507;-71
2021/04/03 11:52:38;;;;;;;1.73;0.80;;;;;;;;;;5022938;28;20863;-71
2021/04/03 11:55:07;;;;;;;1.90;0.70;;;;;;;;;;5043967;28;20447;-71
2021/04/03 11:57:35;;;;;;;2.93;1.03;;;;;;;;;;5036509;28;20470;-70
2021/04/03 12:00:04;;;;;;;1.90;0.90;;;;;;;;;;5036990;28;20477;-71
2021/04/03 12:02:32;;;;;;;4.40;1.30;;;;;;;;;;5043857;28;20478;-71
2021/04/03 12:05:04;;;;;;;2.13;1.03;;;;;;;;;;5051049;28;20478;-72
2021/04/03 12:07:36;;;;;;;4.83;1.10;;;;;;;;;;5059247;28;20881;-71
2021/04/03 12:10:15;;;;;;;2.70;1.43;;;;;;;;;;5052699;28;20436;-71
2021/04/03 12:12:43;;;;;;;2.10;1.33;;;;;;;;;;5057100;28;20461;-69
2021/04/03 12:15:21;;;;;;;2.80;1.13;;;;;;;;;;5073591;28;20449;-71
2021/04/03 12:17:52;;;;;;;3.70;1.10;;;;;;;;;;5076333;28;20473;-70
2021/04/03 12:20:37;;;;;;;2.10;1.17;;;;;;;;;;5073631;28;20449;-70
2021/04/03 12:23:07;;;;;;;2.43;1.20;;;;;;;;;;5056208;28;20457;-71
2021/04/03 12:25:37;;;;;;;2.23;0.70;;;;;;;;;;5059817;28;20564;-71
2021/04/03 12:28:07;;;;;;;1.70;0.80;;;;;;;;;;5075572;28;20653;-70
2021/04/03 12:30:34;;;;;;;1.40;0.63;;;;;;;;;;5076444;28;20456;-69
2021/04/03 12:33:02;;;;;;;2.87;1.13;;;;;;;;;;5077896;28;20476;-70
2021/04/03 12:35:32;;;;;;;1.50;0.70;;;;;;;;;;5075471;28;20532;-70
2021/04/03 12:38:06;;;;;;;2.03;0.90;;;;;;;;;;5077338;28;21171;-72
2021/04/03 12:40:34;;;;;;;2.70;0.90;;;;;;;;;;5077351;28;20441;-71
2021/04/03 12:43:06;;;;;;;3.10;1.00;;;;;;;;;;5076350;28;20456;-71
2021/04/03 12:45:34;;;;;;;2.17;0.97;;;;;;;;;;5077539;28;20485;-71
2021/04/03 12:48:27;;;;;;;1.53;1.00;;;;;;;;;;5076218;28;20488;-71
2021/04/03 12:50:55;;;;;;;4.77;1.33;;;;;;;;;;5043053;28;20465;-71
2021/04/03 12:53:26;;;;;;;3.50;0.80;;;;;;;;;;5057418;28;20542;-71
2021/04/03 12:55:58;;;;;;;2.93;1.30;;;;;;;;;;5055850;28;20454;-71
2021/04/03 12:58:30;;;;;;;3.40;1.30;;;;;;;;;;5055764;28;20517;-70
2021/04/03 13:01:07;;;;;;;2.80;1.00;;;;;;;;;;5054786;28;20446;-71
2021/04/03 13:03:35;;;;;;;3.00;0.90;;;;;;;;;;5064293;28;20911;-71
2021/04/03 13:06:02;;;;;;;2.87;1.27;;;;;;;;;;5051902;28;20465;-71
2021/04/03 13:08:30;;;;;;;2.70;0.90;;;;;;;;;;5046405;28;20459;-71
2021/04/03 13:10:57;;;;;;;3.03;0.83;;;;;;;;;;5038379;28;20538;-71
2021/04/03 13:13:25;;;;;;;1.87;0.70;;;;;;;;;;5066123;28;20456;-71
2021/04/03 13:15:54;;;;;;;2.57;0.87;;;;;;;;;;5053966;28;20599;-70
2021/04/03 13:18:21;;;;;;;3.20;0.90;;;;;;;;;;5048907;28;20474;-70
2021/04/03 13:20:48;;;;;;;2.87;1.10;;;;;;;;;;5059771;28;20458;-70
2021/04/03 13:23:18;;;;;;;1.60;0.80;;;;;;;;;;5059387;28;20458;-70
2021/04/03 13:25:46;;;;;;;2.27;0.93;;;;;;;;;;5059333;28;20441;-70
2021/04/03 13:28:14;;;;;;;5.33;0.90;;;;;;;;;;5059387;28;20458;-73
2021/04/03 13:30:44;;;;;;;1.93;0.80;;;;;;;;;;5058647;28;20528;-71
2021/04/03 13:33:12;;;;;;;2.80;0.80;;;;;;;;;;5060575;28;20485;-69
2021/04/03 13:35:42;;;;;;;2.30;0.80;;;;;;;;;;5059177;28;20453;-71
2021/04/03 13:38:10;;;;;;;1.37;0.80;;;;;;;;;;5062223;28;20480;-71
2021/04/03 13:40:38;;;;;;;2.13;0.90;;;;;;;;;;5059515;28;20457;-71
2021/04/03 13:43:06;;;;;;;2.70;1.13;;;;;;;;;;5059773;28;20502;-71
2021/04/03 13:45:34;;;;;;;3.00;1.10;;;;;;;;;;5060629;28;20485;-71
2021/04/03 13:48:01;;;;;;;1.60;0.60;;;;;;;;;;5059629;28;20462;-71
2021/04/03 13:50:40;;;;;;;3.57;1.00;;;;;;;;;;5057974;28;20453;-69
2021/04/03 13:53:10;;;;;;;3.50;1.53;;;;;;;;;;5039461;28;20502;-71
2021/04/03 13:55:39;;;;;;;2.73;0.97;;;;;;;;;;5039582;28;20454;-70
2021/04/03 13:58:06;;;;;;;2.60;1.30;;;;;;;;;;5039408;28;20485;-70
2021/04/03 14:00:35;;;;;;;2.63;1.30;;;;;;;;;;5040592;28;20545;-70
2021/04/03 14:03:03;;;;;;;3.07;1.03;;;;;;;;;;5038417;28;20489;-70
2021/04/03 14:05:30;;;;;;;2.77;1.43;;;;;;;;;;5039251;28;20609;-70
2021/04/03 14:07:58;;;;;;;3.00;0.90;;;;;;;;;;5039903;28;20478;-70
2021/04/03 14:10:26;;;;;;;2.77;1.00;;;;;;;;;;5039439;28;20512;-70
2021/04/03 14:12:54;;;;;;;2.63;1.00;;;;;;;;;;5043911;28;20881;-71
2021/04/03 14:15:21;;;;;;;2.87;0.90;;;;;;;;;;5053265;28;20466;-70
2021/04/03 14:17:50;;;;;;;2.00;1.20;;;;;;;;;;5051621;28;20462;-71
2021/04/03 14:20:17;;;;;;;2.30;0.93;;;;;;;;;;5058901;28;20485;-71
2021/04/03 14:22:45;;;;;;;2.87;0.60;;;;;;;;;;5058397;28;20507;-69
2021/04/03 14:25:14;;;;;;;1.60;0.83;;;;;;;;;;5054397;28;20521;-71
2021/04/03 14:27:41;;;;;;;1.60;0.90;;;;;;;;;;5059152;28;21041;-70
2021/04/03 14:30:09;;;;;;;2.07;0.90;;;;;;;;;;5049939;28;20454;-71
2021/04/03 14:32:36;;;;;;;1.37;0.83;;;;;;;;;;5050380;28;20458;-71
2021/04/03 14:35:04;;;;;;;1.93;0.70;;;;;;;;;;5041591;28;20462;-71
2021/04/03 14:37:32;;;;;;;1.97;0.93;;;;;;;;;;5051092;28;20836;-71
2021/04/03 14:39:59;;;;;;;1.20;0.60;;;;;;;;;;5059001;28;20576;-71
2021/04/03 14:42:33;;;;;;;2.17;0.80;;;;;;;;;;5037337;28;20481;-71
2021/04/03 14:45:00;;;;;;;2.60;0.90;;;;;;;;;;5038399;28;20959;-71
2021/04/03 14:47:27;;;;;;;1.63;0.60;;;;;;;;;;5042806;28;20746;-71
2021/04/03 14:49:55;;;;;;;1.70;0.93;;;;;;;;;;5054857;28;20465;-71
2021/04/03 14:52:26;;;;;;;3.80;1.33;;;;;;;;;;5062901;28;20488;-71
2021/04/03 14:54:53;;;;;;;4.33;0.90;;;;;;;;;;5057300;28;20748;-71
2021/04/03 14:57:22;;;;;;;1.83;1.00;;;;;;;;;;5057552;28;20460;-70